Time;durP1;ratioP1;P1;durP2;ratioP2;P2;SDS_P1;SDS_P2;PMS_P1;PMS_P2;Temp;Humidity;BMP_temperature;BMP_pressure;BME280_temperature;BME280_humidity;BME280_pressure;Samples;Min_cycle;Max_cycle;Signal;HPM_P1;HPM_P2
2021/01/10 00:00:25;;;;;;;1.50;1.30;;;9.10;99.90;;;;;;4951397;29;20244;-30
2021/01/10 00:02:56;;;;;;;3.25;1.52;;;9.10;99.90;;;;;;4951544;29;20217;-36
2021/01/10 00:05:28;;;;;;;1.60;1.30;;;9.00;99.90;;;;;;4948483;29;20301;-36
2021/01/10 00:07:59;;;;;;;2.65;1.20;;;8.90;99.90;;;;;;4951345;29;20277;-32
2021/01/10 00:10:31;;;;;;;2.25;1.50;;;8.90;99.90;;;;;;4951190;29;20190;-29
2021/01/10 00:13:03;;;;;;;1.63;1.52;;;8.80;99.90;;;;;;4951166;29;20206;-34
2021/01/10 00:15:33;;;;;;;1.95;1.75;;;8.80;99.90;;;;;;4950770;29;20201;-33
2021/01/10 00:18:05;;;;;;;1.85;1.55;;;8.60;99.90;;;;;;4951346;29;20209;-34
2021/01/10 00:20:35;;;;;;;1.42;1.20;;;8.60;99.90;;;;;;4950818;29;20216;-33
2021/01/10 00:23:06;;;;;;;1.40;1.20;;;8.60;99.90;;;;;;4951454;29;20277;-34
2021/01/10 00:25:37;;;;;;;1.38;1.27;;;8.60;99.90;;;;;;4951293;29;20531;-33
2021/01/10 00:28:08;;;;;;;1.50;1.20;;;8.50;99.90;;;;;;4950925;29;20587;-33
2021/01/10 00:30:38;;;;;;;2.08;1.10;;;8.50;99.90;;;;;;4950577;29;20190;-35
2021/01/10 00:33:08;;;;;;;1.80;1.70;;;8.40;99.90;;;;;;4950933;29;20201;-34
2021/01/10 00:35:38;;;;;;;2.00;1.33;;;8.40;99.90;;;;;;4951121;29;20297;-35
2021/01/10 00:38:08;;;;;;;1.10;1.00;;;8.30;99.90;;;;;;4950735;29;20209;-33
2021/01/10 00:40:43;;;;;;;1.73;1.33;;;8.30;99.90;;;;;;4950920;29;20213;-34
2021/01/10 00:43:13;;;;;;;1.10;1.00;;;8.20;99.90;;;;;;4951735;28;20227;-32
2021/01/10 00:45:43;;;;;;;3.35;1.10;;;8.10;99.90;;;;;;4954009;29;20225;-33
2021/01/10 00:48:13;;;;;;;1.88;1.25;;;8.10;99.90;;;;;;4954320;29;20197;-31
2021/01/10 00:50:43;;;;;;;1.30;1.20;;;8.00;99.90;;;;;;4954352;29;20553;-30
2021/01/10 00:53:13;;;;;;;2.63;1.30;;;8.00;99.90;;;;;;4950100;29;20229;-32
2021/01/10 00:55:45;;;;;;;1.92;1.20;;;8.00;99.90;;;;;;4935132;29;20261;-32
2021/01/10 00:58:15;;;;;;;1.40;1.20;;;7.90;99.90;;;;;;4941448;29;20557;-33
2021/01/10 01:00:45;;;;;;;1.50;1.30;;;7.80;99.90;;;;;;4953745;29;20224;-31
2021/01/10 01:03:15;;;;;;;1.23;1.13;;;7.80;99.90;;;;;;4953917;29;20299;-29
2021/01/10 01:05:45;;;;;;;3.00;1.77;;;7.70;99.90;;;;;;4954307;29;20213;-35
2021/01/10 01:08:15;;;;;;;1.00;1.00;;;7.70;99.90;;;;;;4953804;29;20194;-34
2021/01/10 01:10:47;;;;;;;1.50;1.30;;;7.70;99.90;;;;;;4953773;29;20205;-32
2021/01/10 01:13:17;;;;;;;3.00;2.70;;;7.70;99.90;;;;;;4953524;29;20607;-35
2021/01/10 01:15:50;;;;;;;1.70;1.60;;;7.70;99.90;;;;;;4954013;29;20201;-31
2021/01/10 01:18:20;;;;;;;4.57;1.95;;;7.60;99.90;;;;;;4954195;29;20677;-33
2021/01/10 01:20:52;;;;;;;1.73;1.52;;;7.60;99.90;;;;;;4954100;29;20688;-32
2021/01/10 01:23:22;;;;;;;2.22;1.40;;;7.60;99.90;;;;;;4953652;29;20696;-32
2021/01/10 01:25:54;;;;;;;1.50;1.23;;;7.70;99.90;;;;;;4953475;29;20196;-37
2021/01/10 01:28:30;;;;;;;2.05;1.52;;;7.70;99.90;;;;;;4953737;29;20499;-29
2021/01/10 01:31:06;;;;;;;1.25;1.25;;;7.70;99.90;;;;;;4936608;29;20197;-29
2021/01/10 01:33:36;;;;;;;1.70;1.48;;;7.60;99.90;;;;;;4953835;29;20197;-35
2021/01/10 01:36:10;;;;;;;4.13;1.92;;;7.60;99.90;;;;;;4953532;29;20206;-32
2021/01/10 01:38:41;;;;;;;2.40;1.70;;;7.60;99.90;;;;;;4953688;29;20649;-29
2021/01/10 01:41:13;;;;;;;1.40;1.27;;;7.60;99.90;;;;;;4934217;29;20213;-30
2021/01/10 01:43:43;;;;;;;1.80;1.70;;;7.60;99.90;;;;;;4934157;29;20232;-32
2021/01/10 01:46:19;;;;;;;1.77;1.67;;;7.60;99.90;;;;;;4933395;29;20677;-33
2021/01/10 01:48:49;;;;;;;1.88;1.30;;;7.60;99.90;;;;;;4934113;29;20202;-34
2021/01/10 01:51:21;;;;;;;2.22;2.03;;;7.60;99.90;;;;;;4951949;29;20206;-32
2021/01/10 01:53:51;;;;;;;2.10;2.00;;;7.60;99.90;;;;;;4953197;28;20237;-32
2021/01/10 01:56:23;;;;;;;2.45;1.85;;;7.50;99.90;;;;;;4951935;29;20193;-35
2021/01/10 01:59:01;;;;;;;2.10;1.90;;;7.50;99.90;;;;;;4953341;29;20205;-34
2021/01/10 02:01:32;;;;;;;1.70;1.60;;;7.50;99.90;;;;;;4952220;29;20304;-34
2021/01/10 02:04:11;;;;;;;2.15;1.80;;;7.40;99.90;;;;;;4952952;29;20244;-33
2021/01/10 02:06:48;;;;;;;2.25;1.60;;;7.40;99.90;;;;;;4953413;29;20200;-29
2021/01/10 02:09:20;;;;;;;1.40;1.30;;;7.40;99.90;;;;;;4952874;29;20513;-33
2021/01/10 02:11:54;;;;;;;1.85;1.75;;;7.40;99.90;;;;;;4952345;29;20704;-29
2021/01/10 02:14:28;;;;;;;2.67;1.83;;;7.40;99.90;;;;;;4952425;29;20190;-31
2021/01/10 02:16:59;;;;;;;2.13;1.77;;;7.30;99.90;;;;;;4953043;29;20673;-32
2021/01/10 02:19:36;;;;;;;1.63;1.52;;;7.30;99.90;;;;;;4953019;29;20577;-32
2021/01/10 02:22:08;;;;;;;1.85;1.60;;;7.30;99.90;;;;;;4952586;29;20189;-32
2021/01/10 02:24:40;;;;;;;1.95;1.50;;;7.30;99.90;;;;;;4952741;29;20221;-32
2021/01/10 02:27:10;;;;;;;1.98;1.88;;;7.30;99.90;;;;;;4952465;29;20201;-32
2021/01/10 02:29:41;;;;;;;2.00;1.83;;;7.30;99.90;;;;;;4952263;29;20205;-34
2021/01/10 02:32:12;;;;;;;1.80;1.70;;;7.30;99.90;;;;;;4952309;29;20268;-31
2021/01/10 02:34:43;;;;;;;1.98;1.70;;;7.30;99.90;;;;;;4952754;29;20204;-31
2021/01/10 02:37:27;;;;;;;2.13;1.73;;;7.30;99.90;;;;;;4952630;29;20558;-33
2021/01/10 02:40:11;;;;;;;2.83;2.00;;;7.20;99.90;;;;;;4952089;29;20224;-34
2021/01/10 02:42:49;;;;;;;2.97;2.03;;;7.20;99.90;;;;;;4952089;29;20299;-32
2021/01/10 02:45:22;;;;;;;2.78;1.73;;;7.10;99.90;;;;;;4951871;29;20575;-34
2021/01/10 02:47:52;;;;;;;2.20;2.10;;;7.00;99.90;;;;;;4952566;29;20503;-31
2021/01/10 02:50:22;;;;;;;2.30;2.10;;;7.10;99.90;;;;;;4952484;29;20249;-35
2021/01/10 02:52:53;;;;;;;2.35;2.10;;;7.10;99.90;;;;;;4952384;29;20201;-32
2021/01/10 02:55:24;;;;;;;2.88;2.10;;;7.00;99.90;;;;;;4952475;29;20226;-31
2021/01/10 02:57:58;;;;;;;2.83;2.50;;;7.10;99.90;;;;;;4952018;29;20202;-33
2021/01/10 03:00:30;;;;;;;2.40;2.20;;;7.10;99.90;;;;;;4951516;29;20251;-32
2021/01/10 03:03:01;;;;;;;2.42;1.90;;;7.00;99.90;;;;;;4952269;29;20257;-31
2021/01/10 03:05:33;;;;;;;3.80;2.28;;;7.00;99.90;;;;;;4951956;28;20381;-33
2021/01/10 03:08:05;;;;;;;2.90;2.30;;;7.00;99.90;;;;;;4935221;29;20661;-30
2021/01/10 03:10:38;;;;;;;1.90;1.80;;;7.00;99.90;;;;;;4951923;29;20193;-29
2021/01/10 03:13:08;;;;;;;2.67;1.80;;;7.00;99.90;;;;;;4951629;29;20204;-30
2021/01/10 03:15:39;;;;;;;2.10;2.00;;;7.00;99.90;;;;;;4951793;29;20216;-33
2021/01/10 03:18:18;;;;;;;1.40;1.23;;;7.00;99.90;;;;;;4951810;29;20252;-34
2021/01/10 03:20:48;;;;;;;2.17;1.98;;;7.00;99.90;;;;;;4950213;29;20197;-34
2021/01/10 03:23:20;;;;;;;1.98;1.77;;;6.90;99.90;;;;;;4932571;29;20240;-29
2021/01/10 03:25:51;;;;;;;1.85;1.70;;;6.90;99.90;;;;;;4932799;29;20193;-30
2021/01/10 03:28:21;;;;;;;2.38;2.17;;;6.90;99.90;;;;;;4932849;29;20202;-32
2021/01/10 03:30:51;;;;;;;1.88;1.73;;;6.80;99.90;;;;;;4944644;29;20582;-32
2021/01/10 03:33:24;;;;;;;2.00;1.80;;;6.80;99.90;;;;;;4951888;29;20306;-34
2021/01/10 03:35:54;;;;;;;2.30;1.90;;;6.80;99.90;;;;;;4951799;29;20194;-35
2021/01/10 03:38:25;;;;;;;2.17;2.03;;;6.80;99.90;;;;;;4951681;29;20305;-36
2021/01/10 03:40:56;;;;;;;1.98;1.88;;;6.80;99.90;;;;;;4951254;29;20206;-32
2021/01/10 03:43:26;;;;;;;1.90;1.80;;;6.70;99.90;;;;;;4951563;29;20224;-34
2021/01/10 03:45:56;;;;;;;1.77;1.67;;;6.70;99.90;;;;;;4950866;29;20772;-32
2021/01/10 03:48:26;;;;;;;2.38;1.83;;;6.70;99.90;;;;;;4951543;29;20346;-31
2021/01/10 03:50:56;;;;;;;3.35;1.73;;;6.70;99.90;;;;;;4951517;29;20256;-33
2021/01/10 03:53:26;;;;;;;2.00;1.80;;;6.70;99.90;;;;;;4951360;29;20283;-30
2021/01/10 03:55:57;;;;;;;2.03;1.92;;;6.70;99.90;;;;;;4951226;29;20265;-33
2021/01/10 03:58:27;;;;;;;1.92;1.83;;;6.60;99.90;;;;;;4951549;29;20264;-32
2021/01/10 04:00:58;;;;;;;2.15;1.70;;;6.60;99.90;;;;;;4950993;29;20570;-32
2021/01/10 04:03:28;;;;;;;3.15;2.20;;;6.70;99.90;;;;;;4951256;29;20269;-31
2021/01/10 04:05:58;;;;;;;2.45;2.25;;;6.60;99.90;;;;;;4951409;29;20617;-31
2021/01/10 04:08:28;;;;;;;2.70;2.03;;;6.60;99.90;;;;;;4951660;29;20213;-35
2021/01/10 04:10:59;;;;;;;2.70;2.50;;;6.60;99.90;;;;;;4942313;29;20757;-34
2021/01/10 04:13:29;;;;;;;2.40;2.30;;;6.70;99.90;;;;;;4940312;29;20198;-33
2021/01/10 04:15:59;;;;;;;4.25;2.30;;;6.60;99.90;;;;;;4951096;29;20228;-34
2021/01/10 04:18:30;;;;;;;3.05;2.10;;;6.60;99.90;;;;;;4952811;28;20209;-30
2021/01/10 04:21:00;;;;;;;3.17;1.90;;;6.50;99.90;;;;;;4954998;29;20557;-32
2021/01/10 04:23:30;;;;;;;1.85;1.75;;;6.60;99.90;;;;;;4954652;29;20358;-33
2021/01/10 04:26:02;;;;;;;2.97;2.40;;;6.60;99.90;;;;;;4954286;29;20253;-31
2021/01/10 04:28:32;;;;;;;3.60;2.42;;;6.60;99.90;;;;;;4935674;29;20190;-33
2021/01/10 04:31:02;;;;;;;3.13;2.40;;;6.60;99.90;;;;;;4935304;29;20237;-32
2021/01/10 04:33:34;;;;;;;2.40;2.20;;;6.60;99.90;;;;;;4938813;29;20228;-29
2021/01/10 04:36:06;;;;;;;2.13;1.77;;;6.60;99.90;;;;;;4954967;29;20273;-32
2021/01/10 04:38:38;;;;;;;2.92;1.90;;;6.70;99.90;;;;;;4954793;29;20561;-32
2021/01/10 04:41:09;;;;;;;2.47;2.10;;;6.70;99.90;;;;;;4953985;29;20193;-28
2021/01/10 04:43:40;;;;;;;4.03;2.05;;;6.70;99.90;;;;;;4954341;29;20697;-34
2021/01/10 04:46:11;;;;;;;1.90;1.80;;;6.60;99.90;;;;;;4953720;29;20222;-32
2021/01/10 04:48:42;;;;;;;3.00;2.50;;;6.60;99.90;;;;;;4954758;29;20216;-32
2021/01/10 04:51:17;;;;;;;2.13;1.92;;;6.60;99.90;;;;;;4954160;29;20622;-33
2021/01/10 04:53:50;;;;;;;2.88;2.28;;;6.60;99.90;;;;;;4954078;29;20696;-34
2021/01/10 04:56:24;;;;;;;2.85;2.65;;;6.60;99.90;;;;;;4954122;29;20200;-32
2021/01/10 04:58:55;;;;;;;2.58;2.20;;;6.70;99.90;;;;;;4953944;29;20220;-35
2021/01/10 05:01:26;;;;;;;2.50;2.30;;;6.70;99.90;;;;;;4934677;29;20210;-30
2021/01/10 05:03:59;;;;;;;2.35;2.13;;;6.70;99.90;;;;;;4938582;29;20222;-28
2021/01/10 05:06:29;;;;;;;3.17;2.10;;;6.80;99.90;;;;;;4954084;29;20197;-33
2021/01/10 05:09:01;;;;;;;2.35;2.10;;;6.80;99.90;;;;;;4954076;29;20280;-30
2021/01/10 05:11:33;;;;;;;2.40;1.90;;;6.80;99.90;;;;;;4953537;29;20197;-33
2021/01/10 05:14:04;;;;;;;2.60;2.40;;;6.80;99.90;;;;;;4954084;29;20208;-32
2021/01/10 05:16:38;;;;;;;2.65;2.22;;;6.80;99.90;;;;;;4953829;29;20198;-32
2021/01/10 05:19:08;;;;;;;2.70;2.50;;;6.80;99.90;;;;;;4954007;29;20238;-34
2021/01/10 05:21:42;;;;;;;2.30;2.10;;;6.80;99.90;;;;;;4954143;29;20645;-34
2021/01/10 05:24:18;;;;;;;2.60;2.40;;;6.80;99.90;;;;;;4953589;29;20582;-30
2021/01/10 05:26:56;;;;;;;2.42;2.22;;;6.80;99.90;;;;;;4953869;29;20560;-31
2021/01/10 05:29:28;;;;;;;2.50;2.30;;;6.80;99.90;;;;;;4953096;28;20219;-33
2021/01/10 05:31:58;;;;;;;2.60;2.38;;;6.80;99.90;;;;;;4953936;29;20197;-34
2021/01/10 05:34:28;;;;;;;2.30;2.10;;;6.80;99.90;;;;;;4953328;29;20198;-33
2021/01/10 05:37:12;;;;;;;2.28;2.10;;;6.70;99.90;;;;;;4953685;29;20209;-35
2021/01/10 05:39:46;;;;;;;2.80;2.60;;;6.80;99.90;;;;;;4953505;29;20204;-34
2021/01/10 05:42:17;;;;;;;2.70;2.50;;;6.80;99.90;;;;;;4952832;29;20260;-31
2021/01/10 05:44:51;;;;;;;2.42;2.20;;;6.80;99.90;;;;;;4952652;29;20263;-34
2021/01/10 05:47:22;;;;;;;3.00;2.72;;;6.80;99.90;;;;;;4953367;29;20221;-31
2021/01/10 05:49:53;;;;;;;3.45;2.33;;;6.80;99.90;;;;;;4941074;29;20257;-32
2021/01/10 05:52:25;;;;;;;3.53;2.70;;;6.80;99.90;;;;;;4942239;29;20201;-34
2021/01/10 05:54:55;;;;;;;3.53;2.78;;;6.80;99.90;;;;;;4936133;29;20233;-36
2021/01/10 05:57:29;;;;;;;2.80;2.35;;;6.90;99.90;;;;;;4952971;29;20198;-32
2021/01/10 06:00:01;;;;;;;3.40;3.10;;;6.90;99.90;;;;;;4952589;29;20245;-32
2021/01/10 06:02:32;;;;;;;2.30;2.20;;;7.00;99.90;;;;;;4952955;29;20220;-34
2021/01/10 06:05:12;;;;;;;2.25;2.05;;;7.00;99.90;;;;;;4952793;29;20304;-32
2021/01/10 06:07:43;;;;;;;2.42;2.17;;;7.00;99.90;;;;;;4953346;29;20193;-34
2021/01/10 06:10:24;;;;;;;2.50;2.30;;;7.00;99.90;;;;;;4952469;29;20253;-33
2021/01/10 06:13:06;;;;;;;3.05;2.53;;;7.00;99.90;;;;;;4952697;29;20293;-32
2021/01/10 06:15:37;;;;;;;3.13;2.60;;;7.10;99.90;;;;;;4952482;29;20249;-33
2021/01/10 06:18:15;;;;;;;2.45;2.05;;;7.10;99.90;;;;;;4952730;29;20653;-34
2021/01/10 06:20:45;;;;;;;3.10;2.80;;;7.00;99.90;;;;;;4952942;29;20194;-30
2021/01/10 06:23:17;;;;;;;2.70;2.50;;;7.00;99.90;;;;;;4953169;29;20256;-31
2021/01/10 06:25:49;;;;;;;3.15;1.80;;;7.10;99.90;;;;;;4952598;29;20208;-32
2021/01/10 06:28:26;;;;;;;2.40;2.20;;;7.10;99.90;;;;;;4952492;29;20244;-35
2021/01/10 06:31:02;;;;;;;2.03;1.85;;;7.10;99.90;;;;;;4935203;29;20223;-35
2021/01/10 06:33:33;;;;;;;3.58;2.17;;;7.10;99.90;;;;;;4952894;29;20703;-31
2021/01/10 06:36:05;;;;;;;2.05;1.95;;;7.10;99.90;;;;;;4952196;29;20260;-34
2021/01/10 06:38:37;;;;;;;2.20;1.85;;;7.10;99.90;;;;;;4946699;29;20194;-32
2021/01/10 06:41:35;;;;;;;2.85;2.65;;;7.20;99.90;;;;;;4951040;28;20531;-35
2021/01/10 06:44:07;;;;;;;2.22;2.00;;;7.20;99.90;;;;;;4952561;29;20225;-32
2021/01/10 06:46:37;;;;;;;2.67;2.40;;;7.10;99.90;;;;;;4952272;29;20308;-33
2021/01/10 06:49:08;;;;;;;2.20;2.00;;;7.10;99.90;;;;;;4952391;29;20209;-32
2021/01/10 06:51:39;;;;;;;2.22;2.03;;;7.10;99.90;;;;;;4951531;29;20194;-31
2021/01/10 06:54:10;;;;;;;2.70;1.88;;;7.00;99.90;;;;;;4952260;29;20237;-33
2021/01/10 06:56:47;;;;;;;2.22;2.00;;;7.10;99.90;;;;;;4952393;29;20288;-33
2021/01/10 06:59:23;;;;;;;2.83;2.10;;;7.10;99.90;;;;;;4951499;29;20279;-29
2021/01/10 07:02:03;;;;;;;2.00;1.90;;;7.00;99.90;;;;;;4952503;29;20549;-34
2021/01/10 07:04:58;;;;;;;1.95;1.60;;;7.00;99.90;;;;;;4952318;29;20236;-33
2021/01/10 07:07:38;;;;;;;2.25;2.05;;;7.10;99.90;;;;;;4952144;29;20201;-31
2021/01/10 07:10:26;;;;;;;2.17;2.00;;;7.10;99.90;;;;;;4951693;29;20286;-34
2021/01/10 07:13:16;;;;;;;2.25;2.05;;;7.10;99.90;;;;;;4952107;29;20210;-34
2021/01/10 07:16:07;;;;;;;1.98;1.88;;;7.10;99.90;;;;;;4951477;29;20205;-33
2021/01/10 07:18:50;;;;;;;2.33;2.03;;;7.10;99.90;;;;;;4951984;29;20223;-35
2021/01/10 07:21:33;;;;;;;2.00;1.90;;;7.10;99.90;;;;;;4951772;29;20193;-29
2021/01/10 07:24:31;;;;;;;2.22;2.03;;;7.10;99.90;;;;;;4951958;29;20601;-32
2021/01/10 07:27:03;;;;;;;1.80;1.70;;;7.00;99.90;;;;;;4951848;29;20521;-33
2021/01/10 07:29:34;;;;;;;2.10;1.95;;;7.00;99.90;;;;;;4951309;29;20213;-31
2021/01/10 07:32:07;;;;;;;2.25;2.05;;;7.00;99.90;;;;;;4951483;29;20200;-35
2021/01/10 07:34:39;;;;;;;2.35;1.90;;;7.00;99.90;;;;;;4951495;29;20276;-33
2021/01/10 07:37:09;;;;;;;2.28;2.08;;;7.00;99.90;;;;;;4951645;29;20628;-32
2021/01/10 07:39:51;;;;;;;2.03;1.88;;;7.10;99.90;;;;;;4951633;29;20201;-34
2021/01/10 07:42:23;;;;;;;2.65;2.45;;;7.20;99.90;;;;;;4932243;29;20204;-34
2021/01/10 07:44:55;;;;;;;2.75;2.10;;;7.20;99.90;;;;;;4932083;29;20297;-32
2021/01/10 07:47:45;;;;;;;2.10;1.90;;;7.20;99.90;;;;;;4932730;29;20198;-35
2021/01/10 07:50:23;;;;;;;2.47;2.28;;;7.30;99.90;;;;;;4932406;29;20194;-33
2021/01/10 07:52:56;;;;;;;2.60;2.40;;;7.30;99.90;;;;;;4932884;29;20202;-33
2021/01/10 07:55:28;;;;;;;2.70;2.40;;;7.40;99.90;;;;;;4939348;29;20692;-33
2021/01/10 07:58:17;;;;;;;2.75;2.50;;;7.40;99.90;;;;;;4955324;29;20285;-29
2021/01/10 08:00:56;;;;;;;2.83;2.15;;;7.30;99.90;;;;;;4955061;29;20292;-31
2021/01/10 08:03:28;;;;;;;3.72;3.00;;;7.40;99.90;;;;;;4955347;29;20216;-30
2021/01/10 08:06:00;;;;;;;2.58;2.38;;;7.30;99.90;;;;;;4955484;29;20685;-29
2021/01/10 08:08:40;;;;;;;2.63;2.30;;;7.20;99.90;;;;;;4955259;29;20198;-31
2021/01/10 08:11:11;;;;;;;2.45;2.25;;;7.20;99.90;;;;;;4954199;29;20339;-35
2021/01/10 08:13:42;;;;;;;3.30;2.55;;;7.20;99.90;;;;;;4955457;29;20667;-30
2021/01/10 08:16:12;;;;;;;2.92;2.60;;;7.20;99.90;;;;;;4954633;29;20375;-34
2021/01/10 08:18:48;;;;;;;2.15;1.95;;;7.30;99.90;;;;;;4936610;29;20272;-30
2021/01/10 08:21:19;;;;;;;2.53;2.22;;;7.20;99.90;;;;;;4943407;29;20197;-33
2021/01/10 08:23:56;;;;;;;2.70;2.00;;;7.10;99.90;;;;;;4955385;29;20361;-35
2021/01/10 08:26:27;;;;;;;2.28;2.08;;;7.10;99.90;;;;;;4954586;29;20257;-31
2021/01/10 08:29:01;;;;;;;2.13;1.90;;;7.00;99.90;;;;;;4955140;29;20197;-32
2021/01/10 08:31:31;;;;;;;3.22;2.50;;;6.80;99.90;;;;;;4953946;29;20225;-29
2021/01/10 08:34:04;;;;;;;2.38;1.77;;;6.70;99.90;;;;;;4954637;29;20267;-30
2021/01/10 08:36:35;;;;;;;2.08;1.88;;;6.50;99.90;;;;;;4954724;29;20198;-33
2021/01/10 08:39:08;;;;;;;2.20;1.95;;;6.40;99.90;;;;;;4954855;29;20201;-31
2021/01/10 08:41:41;;;;;;;1.70;1.60;;;6.40;99.90;;;;;;4954526;29;20676;-30
2021/01/10 08:44:13;;;;;;;2.28;2.05;;;6.30;99.90;;;;;;4954352;29;20268;-31
2021/01/10 08:46:44;;;;;;;2.80;2.15;;;6.20;99.90;;;;;;4954678;29;20200;-32
2021/01/10 08:49:18;;;;;;;2.30;2.10;;;6.10;99.90;;;;;;4954688;29;20221;-30
2021/01/10 08:51:49;;;;;;;1.98;1.88;;;6.00;99.90;;;;;;4954588;29;20193;-30
2021/01/10 08:54:21;;;;;;;1.90;1.80;;;6.00;99.90;;;;;;4954278;29;20689;-31
2021/01/10 08:56:53;;;;;;;1.88;1.77;;;6.00;99.90;;;;;;4953959;29;20276;-31
2021/01/10 08:59:23;;;;;;;1.80;1.70;;;6.00;99.90;;;;;;4953697;29;20201;-29
2021/01/10 09:01:53;;;;;;;1.70;1.60;;;5.90;99.90;;;;;;4954163;29;20224;-31
2021/01/10 09:04:25;;;;;;;2.40;1.98;;;5.90;99.90;;;;;;4953183;28;20571;-32
2021/01/10 09:07:01;;;;;;;1.70;1.60;;;5.90;99.90;;;;;;4945111;29;20198;-30
2021/01/10 09:09:43;;;;;;;2.67;2.25;;;5.90;99.90;;;;;;4935106;29;20219;-31
2021/01/10 09:12:23;;;;;;;2.35;2.15;;;5.80;99.90;;;;;;4952330;29;20193;-33
2021/01/10 09:14:56;;;;;;;2.33;2.10;;;5.80;99.90;;;;;;4953811;29;20201;-31
2021/01/10 09:17:29;;;;;;;1.92;1.67;;;5.80;99.90;;;;;;4953683;29;20200;-32
2021/01/10 09:20:06;;;;;;;2.40;1.88;;;5.70;99.90;;;;;;4954116;29;20281;-29
2021/01/10 09:22:37;;;;;;;2.20;2.00;;;5.80;99.90;;;;;;4953976;29;20268;-30
2021/01/10 09:25:12;;;;;;;3.17;2.35;;;5.80;99.90;;;;;;4953677;29;20232;-28
2021/01/10 09:28:09;;;;;;;2.55;2.22;;;5.80;99.90;;;;;;4953849;29;20307;-29
2021/01/10 09:30:40;;;;;;;2.20;1.95;;;5.80;99.90;;;;;;4953392;29;20512;-29
2021/01/10 09:33:11;;;;;;;2.38;1.80;;;5.90;99.90;;;;;;4953013;29;20194;-31
2021/01/10 09:35:43;;;;;;;2.00;1.88;;;5.90;99.90;;;;;;4953851;29;20608;-30
2021/01/10 09:38:16;;;;;;;2.13;1.98;;;6.00;99.90;;;;;;4953958;29;20257;-33
2021/01/10 09:41:07;;;;;;;2.88;1.90;;;6.00;99.90;;;;;;4953327;29;20186;-31
2021/01/10 09:43:41;;;;;;;3.65;2.10;;;6.00;99.90;;;;;;4953309;29;20218;-32
2021/01/10 09:46:32;;;;;;;2.70;2.50;;;6.00;99.90;;;;;;4953021;29;20223;-27
2021/01/10 09:49:03;;;;;;;4.80;3.10;;;6.10;99.90;;;;;;4951491;29;20252;-31
2021/01/10 09:51:39;;;;;;;3.38;3.08;;;6.00;99.90;;;;;;4953581;29;20574;-31
2021/01/10 09:54:14;;;;;;;3.15;2.85;;;6.00;99.90;;;;;;4953019;29;20596;-30
2021/01/10 09:56:51;;;;;;;3.08;2.78;;;6.00;99.90;;;;;;4953032;29;20226;-32
2021/01/10 09:59:41;;;;;;;2.97;2.78;;;6.00;99.90;;;;;;4952448;29;20213;-29
2021/01/10 10:02:20;;;;;;;3.10;2.80;;;6.00;99.90;;;;;;4953163;29;20684;-30
2021/01/10 10:04:51;;;;;;;3.20;2.90;;;6.10;99.90;;;;;;4953091;29;20276;-30
2021/01/10 10:07:35;;;;;;;3.45;2.90;;;6.10;99.90;;;;;;4953437;29;20200;-31
2021/01/10 10:10:07;;;;;;;3.67;3.38;;;6.10;99.90;;;;;;4952757;29;20201;-30
2021/01/10 10:12:37;;;;;;;4.00;3.20;;;6.10;99.90;;;;;;4952896;29;20618;-32
2021/01/10 10:15:09;;;;;;;4.00;3.55;;;6.20;99.90;;;;;;4951832;28;20206;-33
2021/01/10 10:17:40;;;;;;;4.70;3.22;;;6.30;99.90;;;;;;4952586;29;20336;-31
2021/01/10 10:20:11;;;;;;;3.70;3.40;;;6.30;99.90;;;;;;4952512;29;20225;-31
2021/01/10 10:22:44;;;;;;;3.58;3.30;;;6.30;99.90;;;;;;4952230;29;20200;-28
2021/01/10 10:25:14;;;;;;;5.40;2.90;;;6.30;99.90;;;;;;4952434;29;20236;-30
2021/01/10 10:27:57;;;;;;;3.58;2.90;;;6.30;99.90;;;;;;4952729;29;20248;-27
2021/01/10 10:30:28;;;;;;;3.40;3.10;;;6.30;99.90;;;;;;4952105;29;20249;-29
2021/01/10 10:32:58;;;;;;;3.67;3.05;;;6.30;99.90;;;;;;4952676;29;20514;-30
2021/01/10 10:35:28;;;;;;;3.45;3.15;;;6.40;99.90;;;;;;4952465;29;20197;-31
2021/01/10 10:38:00;;;;;;;2.67;2.47;;;6.40;99.90;;;;;;4952649;29;20202;-33
2021/01/10 10:40:31;;;;;;;2.17;2.08;;;6.40;99.90;;;;;;4952333;29;20248;-29
2021/01/10 10:43:01;;;;;;;2.40;2.20;;;6.40;99.90;;;;;;4952452;29;20194;-30
2021/01/10 10:45:31;;;;;;;2.85;2.60;;;6.50;99.90;;;;;;4948271;29;20308;-28
2021/01/10 10:48:01;;;;;;;2.70;2.50;;;6.50;99.90;;;;;;4933469;29;20220;-28
2021/01/10 10:50:33;;;;;;;3.20;2.70;;;6.50;99.90;;;;;;4933245;29;20246;-31
2021/01/10 10:53:05;;;;;;;3.15;2.10;;;6.60;99.90;;;;;;4944520;29;20267;-29
2021/01/10 10:55:35;;;;;;;3.30;1.92;;;6.50;99.90;;;;;;4951993;29;20194;-30
2021/01/10 10:58:05;;;;;;;2.65;2.45;;;6.60;99.90;;;;;;4951883;29;20250;-27
2021/01/10 11:00:35;;;;;;;2.97;2.78;;;6.60;99.90;;;;;;4951683;29;20205;-30
2021/01/10 11:03:05;;;;;;;2.53;2.33;;;6.60;99.90;;;;;;4951872;29;20198;-34
2021/01/10 11:05:35;;;;;;;2.58;2.38;;;6.60;99.90;;;;;;4952069;29;20240;-30
2021/01/10 11:08:07;;;;;;;2.08;1.92;;;6.60;99.90;;;;;;4952188;29;20264;-32
2021/01/10 11:10:37;;;;;;;3.08;2.47;;;6.70;99.90;;;;;;4951557;29;20233;-32
2021/01/10 11:13:07;;;;;;;2.28;2.05;;;6.80;99.90;;;;;;4951545;29;20209;-30
2021/01/10 11:15:37;;;;;;;2.42;1.90;;;6.80;99.90;;;;;;4950795;29;20201;-29
2021/01/10 11:18:07;;;;;;;3.08;2.70;;;6.80;99.90;;;;;;4951718;29;20210;-33
2021/01/10 11:20:38;;;;;;;2.53;2.33;;;6.90;99.90;;;;;;4951911;29;20343;-33
2021/01/10 11:23:09;;;;;;;1.70;1.60;;;6.80;99.90;;;;;;4951560;29;20227;-33
2021/01/10 11:25:39;;;;;;;2.38;2.22;;;6.80;99.90;;;;;;4951533;29;20228;-34
2021/01/10 11:28:10;;;;;;;2.30;2.10;;;6.90;99.90;;;;;;4951538;28;20205;-29
2021/01/10 11:30:40;;;;;;;2.40;2.20;;;6.90;99.90;;;;;;4951057;29;20256;-31
2021/01/10 11:33:10;;;;;;;3.90;2.45;;;6.80;99.90;;;;;;4951777;29;20209;-30
2021/01/10 11:35:41;;;;;;;2.47;2.28;;;6.70;99.90;;;;;;4951725;29;20201;-29
2021/01/10 11:38:12;;;;;;;2.67;2.40;;;6.70;99.90;;;;;;4951732;29;20189;-30
2021/01/10 11:40:42;;;;;;;2.30;2.13;;;6.70;99.90;;;;;;4951261;29;20190;-34
2021/01/10 11:43:12;;;;;;;2.33;2.05;;;6.70;99.90;;;;;;4951152;29;20724;-32
2021/01/10 11:45:42;;;;;;;2.50;2.28;;;6.70;99.90;;;;;;4950575;29;20275;-27
2021/01/10 11:48:13;;;;;;;3.70;2.30;;;6.70;99.90;;;;;;4951402;29;20205;-29
2021/01/10 11:50:43;;;;;;;2.40;2.20;;;6.70;99.90;;;;;;4951367;29;20511;-33
2021/01/10 11:53:14;;;;;;;2.75;2.45;;;6.70;99.90;;;;;;4951924;29;20236;-31
2021/01/10 11:55:44;;;;;;;2.70;2.50;;;6.70;99.90;;;;;;4951163;29;20275;-28
2021/01/10 11:58:14;;;;;;;3.00;2.63;;;6.70;99.90;;;;;;4951369;29;20189;-29
2021/01/10 12:00:44;;;;;;;2.83;2.47;;;6.80;99.90;;;;;;4951005;29;20224;-29
2021/01/10 12:03:14;;;;;;;2.40;2.20;;;6.80;99.90;;;;;;4951353;29;20248;-31
2021/01/10 12:05:45;;;;;;;2.70;2.50;;;6.70;99.90;;;;;;4951091;29;20229;-33
2021/01/10 12:08:16;;;;;;;3.00;2.70;;;6.60;99.90;;;;;;4951603;29;20248;-27
2021/01/10 12:10:48;;;;;;;2.45;2.25;;;6.60;99.90;;;;;;4951070;29;20298;-31
2021/01/10 12:13:18;;;;;;;3.10;2.70;;;6.60;99.90;;;;;;4952018;29;20252;-30
2021/01/10 12:15:49;;;;;;;3.03;2.65;;;6.60;99.90;;;;;;4951060;29;20501;-30
2021/01/10 12:18:19;;;;;;;3.40;2.80;;;6.60;99.90;;;;;;4951283;29;20193;-32
2021/01/10 12:20:49;;;;;;;3.22;2.80;;;6.60;99.90;;;;;;4950674;29;20574;-31
2021/01/10 12:23:20;;;;;;;2.95;2.63;;;6.50;99.90;;;;;;4951389;29;20209;-30
2021/01/10 12:25:50;;;;;;;2.83;2.35;;;6.50;99.90;;;;;;4951276;29;20856;-35
2021/01/10 12:28:20;;;;;;;2.90;2.70;;;6.50;99.90;;;;;;4951210;29;20205;-31
2021/01/10 12:30:50;;;;;;;3.58;2.80;;;6.50;99.90;;;;;;4950156;29;20202;-33
2021/01/10 12:33:21;;;;;;;2.80;2.55;;;6.40;99.90;;;;;;4951227;29;20205;-30
2021/01/10 12:35:51;;;;;;;3.03;2.67;;;6.40;99.90;;;;;;4951204;29;20216;-29
2021/01/10 12:38:22;;;;;;;2.58;2.38;;;6.40;99.90;;;;;;4951138;28;20205;-31
2021/01/10 12:40:53;;;;;;;2.80;2.50;;;6.40;99.90;;;;;;4953954;29;20284;-30
2021/01/10 12:43:23;;;;;;;3.33;3.05;;;6.40;99.90;;;;;;4954599;29;20362;-34
2021/01/10 12:45:53;;;;;;;2.97;2.70;;;6.40;99.90;;;;;;4954148;29;20312;-32
2021/01/10 12:48:23;;;;;;;3.13;2.83;;;6.50;99.90;;;;;;4954431;29;20201;-30
2021/01/10 12:50:54;;;;;;;3.22;2.92;;;6.50;99.90;;;;;;4954468;29;20736;-30
2021/01/10 12:53:25;;;;;;;3.55;3.17;;;6.50;99.90;;;;;;4954499;29;20758;-28
2021/01/10 12:55:55;;;;;;;3.60;2.92;;;6.40;99.90;;;;;;4954089;29;20205;-29
2021/01/10 12:58:25;;;;;;;3.30;3.00;;;6.30;99.90;;;;;;4954463;29;20546;-30
2021/01/10 13:00:55;;;;;;;3.45;3.13;;;6.30;99.90;;;;;;4953526;29;20670;-31
2021/01/10 13:03:25;;;;;;;4.18;3.45;;;6.30;99.90;;;;;;4954416;29;20201;-34
2021/01/10 13:05:55;;;;;;;4.60;3.33;;;6.30;99.90;;;;;;4954146;29;20240;-28
2021/01/10 13:08:26;;;;;;;3.67;3.38;;;6.20;99.90;;;;;;4954101;29;20198;-32
2021/01/10 13:10:57;;;;;;;4.05;3.22;;;6.10;99.90;;;;;;4953603;29;20684;-30
2021/01/10 13:13:27;;;;;;;3.72;3.28;;;6.10;99.90;;;;;;4948867;29;20232;-31
2021/01/10 13:15:57;;;;;;;4.25;3.60;;;6.00;99.90;;;;;;4938470;29;20276;-34
2021/01/10 13:18:27;;;;;;;4.60;3.75;;;6.00;99.90;;;;;;4954197;29;20233;-29
2021/01/10 13:20:57;;;;;;;3.63;3.30;;;6.00;99.90;;;;;;4953998;29;20276;-31
2021/01/10 13:23:28;;;;;;;3.47;3.17;;;6.00;99.90;;;;;;4953796;29;20248;-29
2021/01/10 13:25:58;;;;;;;4.05;3.65;;;5.90;99.90;;;;;;4953650;29;20276;-29